Station: Cultana (Defence)

  Atmospheric Gas Attenuation - ITU Rec 676-11   --------------- db/100km ---------------
Date Time Temp RH % AH g/m3 Dew Point Wind Direction Speed kph Gust kph Barometer mB Rainfall Since 9am 24GHz 47GHz 76GHz 122GHz 134GHz 241GHz
15 00:10 12.5 83 9.13 9.7 24 26 1013.1 0.2 20.8 27.2 42.6 112.0 107.3 369.3
15 00:00 12.6 83 9.18 9.8 26 32 1013.1 0.2 20.9 27.2 42.8 112.4 107.8 371.2
14 23:50 12.9 84 9.47 10.2 24 28 1013.1 0.2 21.5 27.6 43.8 115.2 111.4 383.7
14 23:40 12.8 85 9.52 10.3 24 28 1013.1 0.2 21.6 27.7 44.1 115.9 112.2 386.6
14 23:30 12.6 90 9.96 11 20 24 1013.1 0.2 22.6 28.5 46.1 121.2 118.6 409.1
14 23:20 12.6 91 10.07 11.1 20 22 1013.1 0.2 22.8 28.7 46.6 122.5 120.2 414.6
14 23:10 12.4 92 10.05 11.1 22 24 1013.1 0.2 22.8 28.8 46.6 122.6 120.2 414.7
14 23:00 12.1 93 9.97 11 20 24 1013.1 0.2 22.6 28.7 46.4 122.1 119.6 412.3
14 22:50 12 92 9.81 10.7 19 20 1013.1 0.2 22.3 28.5 45.8 120.5 117.5 404.9
14 22:40 12.2 90 9.71 10.7 19 20 1013.1 0.2 22.1 28.2 45.3 119.0 115.7 398.9
14 22:30 12.4 91 9.94 11 22 24 1013.1 0.2 22.5 28.6 46.1 121.3 118.7 409.2
14 22:20 12.4 90 9.83 10.8 22 24 1013.1 0.2 22.3 28.4 45.7 120.1 117.1 403.8
14 22:10 12.7 89 9.91 10.9 22 24 1013.1 0.2 22.5 28.4 45.8 120.5 117.8 406.2
14 22:00 13 88 9.98 11.1 24 28 1013.1 0.2 22.6 28.4 45.9 120.8 118.3 408.0
14 21:50 13.2 86 9.88 10.9 26 30 1013.1 0.2 22.4 28.2 45.4 119.4 116.6 402.1
14 21:40 13.2 85 9.76 10.7 28 30 1013.1 0.2 22.1 28.0 44.9 118.0 114.9 396.2
14 21:30 13.4 84 9.77 10.7 24 28 1013.1 0.2 22.1 27.9 44.8 117.8 114.8 395.7
14 21:20 13.6 84 9.89 10.9 28 30 1013.1 0.2 22.4 28.1 45.2 118.9 116.1 400.5
14 21:10 13.6 81 9.53 10.5 28 30 1013.1 0.2 21.6 27.5 43.7 114.9 111.2 383.1
14 21:00 13.9 81 9.71 10.7 26 32 1013.1 0.2 22.0 27.7 44.3 116.4 113.2 390.3
14 20:50 14 80 9.65 10.6 22 26 1013.1 0.2 21.8 27.6 44.0 115.6 112.2 386.9
14 20:40 14 80 9.65 10.6 28 32 1013.1 0.2 21.8 27.6 44.0 115.6 112.2 386.9
14 20:30 14.1 80 9.71 10.7 30 32 1013.1 0.2 22.0 27.6 44.2 116.1 112.9 389.3
14 20:20 14.2 79 9.65 10.6 28 32 1013.1 0.2 21.8 27.5 43.9 115.3 111.9 385.9
14 20:10 14.4 78 9.64 10.6 28 32 1013.1 0.2 21.8 27.4 43.7 114.9 111.5 384.5
14 20:00 14.8 76 9.63 10.6 28 33 1013.1 0.2 21.7 27.3 43.4 114.2 110.8 382.0
14 19:50 15.1 75 9.68 10.7 30 33 1013.1 0.2 21.8 27.3 43.5 114.3 111.0 382.9
14 19:40 15.3 74 9.66 10.7 32 35 1013.1 0.2 21.8 27.2 43.3 113.8 110.5 381.0
14 19:30 15.1 73 9.42 10.3 24 30 1013.1 0.2 21.3 26.8 42.4 111.5 107.6 370.7
14 19:20 15.3 70 9.14 10 26 28 1013.1 0.2 20.7 26.3 41.2 108.2 103.6 356.8
14 19:10 15.6 69 9.18 9.9 30 32 1013.1 0.2 20.7 26.3 41.2 108.2 103.7 357.2
14 19:00 16.1 66 9.05 9.9 28 30 1013.1 0.2 20.4 25.9 40.4 106.1 101.3 349.1
14 18:50 16.3 65 9.02 9.7 20 24 1013.1 0.2 20.4 25.8 40.2 105.6 100.7 346.8
14 18:40 16.4 65 9.07 9.8 32 37 1013.1 0.2 20.5 25.9 40.3 106.0 101.2 348.6
14 18:30 16.4 65 9.07 9.8 35 43 1013.1 0.2 20.5 25.9 40.3 106.0 101.2 348.6
14 18:20 16.1 66 9.05 9.7 24 28 1013.1 0.2 20.4 25.9 40.4 106.1 101.3 349.1
14 18:10 16.2 66 9.1 9.8 24 28 1013.1 0.2 20.5 26.0 40.6 106.5 101.9 350.9
14 18:00 16.2 64 8.83 9.4 22 28 1013.1 0.2 20.0 25.6 39.5 103.7 98.4 338.7
14 17:50 15.9 66 8.94 9.7 24 26 1013.1 0.2 20.2 25.8 40.1 105.3 100.2 344.9
14 17:40 16 71 9.67 10.7 20 20 1013.1 0.2 21.8 27.0 43.0 112.9 109.6 378.1
14 17:30 16.3 69 9.57 10.6 19 20 1013.1 0.2 21.5 26.7 42.4 111.4 107.9 372.0
14 17:20 16.6 67 9.46 10.4 24 24 1013.1 0.2 21.3 26.5 41.8 109.8 106.0 365.5
14 17:10 17 64 9.26 10.3 24 28 1013.1 0.2 20.8 26.0 40.8 107.1 102.9 354.6
14 17:00 17.3 65 9.58 10.7 26 32 1013.1 0.2 21.5 26.4 41.9 110.1 106.6 367.7
14 16:50 17.7 62 9.35 10.5 28 32 1013.1 0.2 21.0 26.0 40.8 107.1 103.1 355.5
14 16:40 17.9 62 9.47 10.5 33 37 1013.1 0.2 21.2 26.1 41.2 108.1 104.4 360.0
14 16:30 18.3 60 9.38 10.4 39 46 1013.1 0.2 21.0 25.8 40.6 106.6 102.7 354.2
14 16:20 19 54 8.8 9.7 39 43 1013.1 0.2 19.8 24.7 38.0 99.8 94.5 325.6
14 16:10 19.5 52 8.73 9.4 43 46 1013.1 0.2 19.6 24.5 37.5 98.5 93.1 320.6
14 16:00 19.9 49 8.42 8.9 37 46 1013.1 0.2 18.9 23.9 36.2 95.0 88.8 305.8
14 15:50 20.1 48 8.34 8.7 35 39 1013.1 0.2 18.7 23.8 35.8 93.9 87.7 301.7
14 15:40 20.3 47 8.27 8.6 28 33 1013.1 0.2 18.6 23.6 35.5 93.0 86.6 298.0
14 15:30 19.6 48 8.1 8.3 33 43 1013.1 0.2 18.3 23.5 35.2 92.2 85.3 293.4
14 15:20 20 47 8.12 8.3 37 41 1013.1 0.2 18.3 23.5 35.1 91.9 85.1 292.8
14 15:10 19.1 48 7.87 7.8 35 41 1013.1 0.2 17.8 23.3 34.6 90.5 83.1 285.6
14 15:00 19.1 47 7.7 7.5 32 44 1013.1 0.2 17.4 23.1 33.9 88.9 81.1 278.5
14 14:50 20.3 44 7.74 7.9 24 30 1013.1 0.2 17.5 22.8 33.6 87.9 80.3 276.0
14 14:40 19.9 44 7.56 7.3 32 37 1013.1 0.2 17.1 22.7 33.1 86.7 78.6 270.0
14 14:30 20 42 7.26 6.7 32 37 1013.1 0.2 16.5 22.2 32.0 83.7 75.0 257.4
14 14:20 19.9 43 7.39 6.9 28 32 1013.1 0.2 16.8 22.4 32.5 85.1 76.6 263.0
14 14:10 19.5 45 7.55 7.2 32 33 1013.1 0.2 17.1 22.8 33.2 87.0 78.9 270.9
14 14:00 19.8 44 7.51 7.2 33 43 1013.1 0.2 17.0 22.6 33.0 86.3 78.1 268.2
14 13:50 19.3 46 7.63 7.4 32 37 1013.1 0.2 17.3 22.9 33.6 88.0 80.0 274.9
14 13:40 19.4 47 7.84 7.8 33 39 1013.1 0.2 17.7 23.2 34.3 89.9 82.4 283.3
14 13:30 19.8 46 7.86 7.8 37 43 1013.1 0.2 17.7 23.1 34.2 89.6 82.3 282.7
14 13:20 19.6 48 8.1 8.3 32 43 1013.1 0.2 18.3 23.5 35.2 92.2 85.3 293.4
14 13:10 19.1 51 8.36 8.7 35 41 1013.1 0.2 18.8 24.0 36.4 95.3 89.0 306.3
14 13:00 19.5 50 8.39 8.8 41 46 1013.1 0.2 18.9 24.0 36.3 95.1 88.9 306.0
14 12:50 18.7 52 8.32 8.6 37 43 1013.1 0.2 18.8 24.1 36.4 95.4 89.0 306.1
14 12:40 17.6 56 8.4 8.7 33 39 1013.1 0.2 19.0 24.5 37.2 97.5 91.2 313.8
14 12:30 18.6 55 8.75 9.4 33 44 1013.1 0.2 19.7 24.8 38.0 99.8 94.4 325.1
14 12:20 17.9 56 8.55 9 30 33 1013.1 0.2 19.3 24.7 37.6 98.7 92.7 319.2
14 12:10 18 55 8.45 8.8 37 41 1013.1 0.2 19.1 24.5 37.2 97.5 91.4 314.4
14 12:00 17.8 57 8.65 9.2 28 35 1013.1 0.2 19.5 24.8 38.0 99.8 94.1 324.0
14 11:50 17.7 56 8.45 9 30 32 1013.1 0 19.1 24.6 37.3 97.9 91.7 315.6
14 11:40 17.1 57 8.3 8.7 32 35 1013.1 0 18.8 24.5 37.0 97.1 90.5 311.4
14 11:30 17.2 57 8.35 8.8 37 43 1013.1 0 18.9 24.5 37.2 97.5 91.1 313.2
14 11:20 17.7 60 9.05 9.8 30 33 1013.1 0 20.4 25.5 39.6 104.0 99.3 342.1
14 11:10 17 64 9.26 10.1 28 33 1013.1 0 20.8 26.0 40.8 107.1 102.9 354.6
14 11:00 16.4 66 9.21 10 19 20 1013.1 0 20.8 26.1 40.9 107.4 103.0 355.0
14 10:50 16.3 66 9.16 9.9 28 32 1013.1 0 20.7 26.1 40.8 107.0 102.5 353.2
14 10:40 16.9 66 9.49 10.5 24 30 1013.1 0 21.3 26.4 41.8 109.7 106.0 365.5
14 10:30 16.1 69 9.46 10.4 30 35 1013.1 0 21.3 26.6 42.1 110.5 106.7 367.9
14 10:20 17 68 9.84 11 22 26 1013.1 0 22.1 26.9 43.1 113.3 110.5 381.1
14 10:10 16.1 71 9.73 10.8 28 33 1013.1 0 21.9 27.0 43.1 113.4 110.3 380.4
14 10:00 15.4 74 9.72 10.8 28 33 1013.1 0 21.9 27.2 43.5 114.3 111.2 383.3
14 09:50 15.2 76 9.86 11 22 24 1013.1 0 22.2 27.5 44.2 116.1 113.3 390.9
14 09:40 15.4 75 9.85 11 20 24 1013.1 0 22.2 27.5 44.0 115.7 112.9 389.4
14 09:30 15.3 75 9.79 10.9 17 22 1013.1 0 22.1 27.4 43.8 115.2 112.2 387.1
14 09:20 14.6 78 9.76 10.8 13 15 1013.1 0 22.0 27.6 44.1 115.9 112.9 389.2
14 09:10 14.1 79 9.59 10.5 15 17 1013.1 0 21.7 27.4 43.7 114.8 111.3 383.6
14 09:00 13.8 81 9.65 10.6 11 15 1013.1 0 21.8 27.6 44.1 115.9 112.5 387.9
14 08:50 13.2 81 9.3 10 11 13 1013.1 0 21.1 27.2 43.0 112.9 108.6 374.1
14 08:40 12.9 81 9.13 9.7 13 15 1013.1 0 20.8 27.0 42.4 111.4 106.7 367.4
14 08:30 12.8 81 9.07 9.6 13 15 1013.1 0 20.6 27.0 42.2 110.9 106.0 365.0
14 08:20 12.7 80 8.91 9.3 13 15 1013.1 0 20.3 26.7 41.6 109.3 104.0 357.9
14 08:10 12.6 80 8.85 9.2 11 13 1013.1 0 20.2 26.7 41.4 108.8 103.3 355.5
14 08:00 12.5 81 8.91 9.3 11 13 1013.1 0 20.3 26.8 41.7 109.6 104.2 358.8
14 07:50 12.5 81 8.91 9.3 9 11 1013.1 0 20.3 26.8 41.7 109.6 104.2 358.8
14 07:40 12.5 82 9.02 9.5 9 11 1013.1 0 20.6 27.0 42.2 110.8 105.7 364.0

Last Refresh: 15-Jun-2024 00:23:52

Bureau of Meteorology